createdAt,value
2022-09-20T00:00:48.744Z,1.15
2022-09-20T00:02:52.695Z,0.98
2022-09-20T00:04:54.441Z,1.10
2022-09-20T00:06:58.834Z,1.27
2022-09-20T00:09:01.375Z,1.10
2022-09-20T00:11:18.531Z,1.17
2022-09-20T00:13:20.167Z,1.00
2022-09-20T00:15:21.723Z,1.05
2022-09-20T00:17:23.352Z,1.00
2022-09-20T00:19:25.625Z,1.13
2022-09-20T00:21:29.809Z,1.10
2022-09-20T00:23:32.751Z,1.30
2022-09-20T00:25:34.343Z,1.00
2022-09-20T00:27:36.074Z,0.90
2022-09-20T00:29:37.883Z,1.00
2022-09-20T00:31:44.951Z,1.20
2022-09-20T00:34:05.123Z,0.95
2022-09-20T00:36:06.866Z,0.90
2022-09-20T00:38:09.153Z,0.90
2022-09-20T00:40:15.685Z,1.20
2022-09-20T00:42:17.476Z,1.10
2022-09-20T00:45:06.918Z,1.23
2022-09-20T00:47:23.133Z,0.95
2022-09-20T00:49:28.557Z,0.90
2022-09-20T00:51:37.155Z,1.00
2022-09-20T00:53:42.089Z,0.95
2022-09-20T00:55:51.220Z,1.00
2022-09-20T00:57:54.494Z,1.00
2022-09-20T00:59:56.644Z,1.20
2022-09-20T01:02:05.606Z,0.93
2022-09-20T01:04:08.719Z,1.08
2022-09-20T01:06:13.918Z,0.80
2022-09-20T01:08:15.532Z,0.80
2022-09-20T01:10:17.523Z,0.90
2022-09-20T01:12:26.894Z,1.00
2022-09-20T01:14:28.437Z,0.98
2022-09-20T01:16:35.985Z,0.70
2022-09-20T01:18:39.469Z,1.02
2022-09-20T01:20:44.442Z,1.02
2022-09-20T01:22:59.496Z,0.80
2022-09-20T01:25:16.996Z,0.90
2022-09-20T01:27:44.016Z,0.77
2022-09-20T01:29:53.950Z,0.82
2022-09-20T01:32:01.814Z,0.70
2022-09-20T01:34:37.312Z,0.98
2022-09-20T01:36:57.198Z,0.80
2022-09-20T01:39:16.123Z,0.80
2022-09-20T01:41:37.354Z,0.85
2022-09-20T01:43:55.159Z,0.93
2022-09-20T01:46:03.540Z,0.80
2022-09-20T01:48:16.045Z,1.00
2022-09-20T01:50:41.939Z,0.82
2022-09-20T01:53:02.735Z,0.80
2022-09-20T01:55:38.916Z,0.90
2022-09-20T01:58:04.596Z,0.80
2022-09-20T02:00:11.934Z,0.70
2022-09-20T02:03:05.805Z,0.82
2022-09-20T02:05:34.668Z,1.05
2022-09-20T02:08:04.072Z,1.10
2022-09-20T02:10:27.205Z,0.73
2022-09-20T02:12:50.038Z,1.13
2022-09-20T02:14:56.456Z,1.00
2022-09-20T02:17:11.831Z,0.80
2022-09-20T02:19:34.183Z,0.95
2022-09-20T02:21:45.700Z,0.88
2022-09-20T02:24:26.428Z,0.85
2022-09-20T02:26:38.027Z,0.70
2022-09-20T02:29:11.879Z,0.80
2022-09-20T02:31:28.424Z,0.80
2022-09-20T02:33:45.963Z,0.65
2022-09-20T02:36:17.579Z,0.90
2022-09-20T02:38:50.033Z,1.20
2022-09-20T02:41:19.092Z,1.00
2022-09-20T02:43:49.098Z,1.00
2022-09-20T02:46:11.262Z,1.13
2022-09-20T02:48:17.949Z,1.05
2022-09-20T02:50:38.631Z,0.90
2022-09-20T02:52:57.379Z,0.90
2022-09-20T02:55:17.981Z,0.93
2022-09-20T02:57:38.265Z,0.93
2022-09-20T02:59:48.721Z,0.90
2022-09-20T03:02:15.143Z,0.88
2022-09-20T03:04:36.036Z,1.00
2022-09-20T03:06:55.217Z,0.90
2022-09-20T03:09:42.916Z,0.90
2022-09-20T03:11:56.987Z,1.05
2022-09-20T03:14:35.325Z,0.90
2022-09-20T03:16:58.469Z,0.93
2022-09-20T03:19:34.001Z,1.02
2022-09-20T03:22:06.783Z,1.00
2022-09-20T03:24:28.865Z,0.90
2022-09-20T03:26:55.759Z,1.10
2022-09-20T03:29:03.578Z,1.10
2022-09-20T03:31:09.206Z,1.00
2022-09-20T03:33:19.313Z,1.02
2022-09-20T03:35:32.829Z,1.10
2022-09-20T03:37:53.008Z,1.10
2022-09-20T03:40:21.684Z,0.93
2022-09-20T03:42:25.794Z,0.90
2022-09-20T03:44:58.713Z,0.90
2022-09-20T03:47:42.919Z,0.98
2022-09-20T03:50:02.271Z,0.90
2022-09-20T03:52:46.006Z,1.17
2022-09-20T03:55:23.047Z,1.00
2022-09-20T03:57:50.589Z,1.30
2022-09-20T04:00:20.836Z,1.10
2022-09-20T04:02:48.290Z,1.42
2022-09-20T04:04:55.813Z,1.10
2022-09-20T04:07:12.406Z,1.17
2022-09-20T04:09:22.883Z,1.00
2022-09-20T04:12:01.416Z,0.82
2022-09-20T04:14:16.853Z,1.00
2022-09-20T04:16:41.451Z,1.05
2022-09-20T04:19:08.091Z,1.10
2022-09-20T04:21:15.582Z,1.33
2022-09-20T04:23:46.721Z,1.00
2022-09-20T04:25:51.207Z,1.40
2022-09-20T04:28:04.568Z,1.10
2022-09-20T04:30:17.235Z,1.17
2022-09-20T04:32:28.977Z,1.40
2022-09-20T04:34:59.724Z,1.40
2022-09-20T04:37:05.040Z,1.48
2022-09-20T04:39:34.023Z,1.15
2022-09-20T04:42:09.919Z,1.30
2022-09-20T04:44:22.128Z,1.30
2022-09-20T04:46:58.014Z,1.20
2022-09-20T04:49:27.171Z,1.55
2022-09-20T04:51:54.411Z,1.42
2022-09-20T04:54:20.281Z,1.48
2022-09-20T04:56:32.771Z,1.10
2022-09-20T04:58:49.402Z,1.52
2022-09-20T05:01:19.693Z,1.45
2022-09-20T05:03:40.461Z,1.38
2022-09-20T05:06:19.297Z,1.52
2022-09-20T05:08:44.043Z,1.20
2022-09-20T05:10:57.897Z,1.38
2022-09-20T05:13:15.003Z,1.40
2022-09-20T05:15:38.001Z,1.25
2022-09-20T05:17:55.179Z,1.40
2022-09-20T05:20:25.401Z,1.20
2022-09-20T05:22:42.089Z,1.40
2022-09-20T05:25:14.884Z,1.42
2022-09-20T05:27:16.504Z,1.00
2022-09-20T05:29:31.723Z,1.30
2022-09-20T05:32:03.357Z,0.93
2022-09-20T05:34:14.472Z,1.40
2022-09-20T05:36:34.899Z,1.20
2022-09-20T05:38:48.639Z,1.50
2022-09-20T05:41:15.903Z,1.50
2022-09-20T05:43:28.701Z,1.13
2022-09-20T05:45:48.017Z,1.60
2022-09-20T05:48:18.201Z,1.48
2022-09-20T05:50:44.426Z,1.73
2022-09-20T05:52:51.828Z,1.48
2022-09-20T05:55:18.330Z,1.60
2022-09-20T05:57:41.484Z,1.40
2022-09-20T05:59:45.899Z,1.52
2022-09-20T06:01:53.284Z,1.50
2022-09-20T06:04:21.458Z,1.20
2022-09-20T06:06:32.736Z,1.70
2022-09-20T06:09:03.870Z,1.63
2022-09-20T06:11:24.485Z,1.60
2022-09-20T06:14:03.804Z,1.40
2022-09-20T06:16:07.765Z,1.50
2022-09-20T06:18:26.032Z,1.50
2022-09-20T06:20:43.329Z,1.33
2022-09-20T06:22:49.193Z,1.77
2022-09-20T06:25:10.801Z,1.33
2022-09-20T06:27:24.381Z,1.23
2022-09-20T06:29:33.108Z,1.38
2022-09-20T06:31:34.854Z,2.17
2022-09-20T06:33:57.506Z,1.60
2022-09-20T06:36:29.710Z,1.63
2022-09-20T06:39:09.530Z,1.70
2022-09-20T06:41:28.382Z,1.70
2022-09-20T06:43:31.486Z,1.73
2022-09-20T06:45:33.591Z,1.35
2022-09-20T06:47:38.686Z,1.42
2022-09-20T06:49:46.646Z,1.42
2022-09-20T06:51:50.792Z,1.70
2022-09-20T06:53:54.339Z,1.38
2022-09-20T06:55:56.718Z,1.13
2022-09-20T06:57:58.394Z,1.70
2022-09-20T07:00:00.403Z,1.42
2022-09-20T07:02:02.281Z,1.60
2022-09-20T07:04:06.133Z,1.65
2022-09-20T07:06:09.473Z,1.80
2022-09-20T07:08:10.964Z,1.85
2022-09-20T07:10:12.844Z,1.60
2022-09-20T07:12:14.842Z,1.60
2022-09-20T07:14:16.750Z,1.52
2022-09-20T07:16:18.542Z,1.65
2022-09-20T07:18:20.111Z,1.65
2022-09-20T07:20:21.980Z,1.90
2022-09-20T07:22:23.847Z,1.98
2022-09-20T07:24:25.559Z,1.65
2022-09-20T07:26:29.172Z,1.63
2022-09-20T07:28:34.757Z,1.52
2022-09-20T07:30:36.361Z,1.92
2022-09-20T07:32:37.919Z,2.10
2022-09-20T07:34:39.422Z,2.10
2022-09-20T07:36:41.108Z,2.00
2022-09-20T07:38:46.851Z,2.30
2022-09-20T07:41:00.643Z,2.45
2022-09-20T07:43:02.118Z,2.35
2022-09-20T07:45:04.099Z,2.50
2022-09-20T07:47:06.434Z,2.30
2022-09-20T07:49:07.947Z,2.58
2022-09-20T07:51:11.767Z,2.58
2022-09-20T07:53:13.380Z,2.80
2022-09-20T07:55:14.959Z,2.72
2022-09-20T07:57:16.800Z,2.50
2022-09-20T07:59:18.527Z,2.22
2022-09-20T08:01:21.843Z,2.45
2022-09-20T08:03:24.429Z,2.30
2022-09-20T08:05:27.166Z,2.50
2022-09-20T08:07:29.326Z,2.10
2022-09-20T08:09:30.877Z,2.20
2022-09-20T08:11:33.166Z,2.35
2022-09-20T08:16:06.553Z,2.28
2022-09-20T08:18:09.446Z,2.20
2022-09-20T08:20:11.428Z,2.50
2022-09-20T08:22:13.952Z,2.10
2022-09-20T08:24:17.362Z,2.15
2022-09-20T08:26:22.670Z,2.00
2022-09-20T08:28:24.240Z,2.05
2022-09-20T08:30:27.843Z,2.15
2022-09-20T08:32:32.373Z,2.33
2022-09-20T08:34:34.019Z,1.88
2022-09-20T08:36:38.732Z,1.95
2022-09-20T08:41:25.304Z,1.85
2022-09-20T08:43:30.227Z,1.70
2022-09-20T08:45:35.097Z,1.55
2022-09-20T08:47:45.360Z,1.77
2022-09-20T08:49:47.868Z,1.70
2022-09-20T08:51:50.783Z,1.50
2022-09-20T08:53:55.752Z,1.52
2022-09-20T08:55:59.914Z,1.80
2022-09-20T08:58:06.164Z,1.30
2022-09-20T09:00:19.400Z,1.77
2022-09-20T09:02:21.668Z,1.30
2022-09-20T09:04:24.922Z,1.42
2022-09-20T09:06:27.085Z,1.38
2022-09-20T09:08:37.611Z,1.60
2022-09-20T09:10:43.623Z,1.50
2022-09-20T09:12:48.724Z,1.90
2022-09-20T09:14:57.326Z,1.52
2022-09-20T09:17:00.808Z,1.90
2022-09-20T09:19:36.320Z,1.65
2022-09-20T09:21:43.338Z,1.67
2022-09-20T09:23:51.583Z,1.88
2022-09-20T09:25:55.410Z,1.95
2022-09-20T09:28:00.224Z,1.60
2022-09-20T09:30:02.672Z,1.92
2022-09-20T09:32:31.077Z,1.65
2022-09-20T09:34:35.258Z,1.88
2022-09-20T09:36:45.838Z,1.70
2022-09-20T09:38:49.333Z,1.60
2022-09-20T09:40:56.496Z,1.35
2022-09-20T09:43:04.076Z,1.08
2022-09-20T09:45:30.549Z,1.70
2022-09-20T09:47:37.654Z,1.50
2022-09-20T09:49:59.821Z,1.20
2022-09-20T09:52:11.849Z,1.40
2022-09-20T09:54:19.861Z,1.30
2022-09-20T09:56:51.955Z,1.25
2022-09-20T09:59:13.878Z,1.60
2022-09-20T10:01:55.819Z,1.33
2022-09-20T10:04:06.664Z,1.33
2022-09-20T10:06:27.198Z,1.20
2022-09-20T10:08:45.733Z,1.33
2022-09-20T10:11:07.200Z,1.50
2022-09-20T10:13:23.702Z,1.02
2022-09-20T10:15:38.188Z,1.38
2022-09-20T10:17:50.740Z,1.48
2022-09-20T10:20:21.092Z,1.30
2022-09-20T10:22:29.127Z,0.93
2022-09-20T10:24:43.087Z,1.08
2022-09-20T10:27:10.004Z,1.30
2022-09-20T10:29:26.119Z,1.30
2022-09-20T10:31:49.862Z,1.08
2022-09-20T10:34:23.611Z,1.60
2022-09-20T10:36:46.456Z,1.20
2022-09-20T10:39:03.022Z,1.02
2022-09-20T10:41:35.248Z,1.33
2022-09-20T10:44:06.759Z,1.20
2022-09-20T10:46:31.800Z,1.00
2022-09-20T10:48:48.522Z,1.08
2022-09-20T10:51:04.239Z,1.63
2022-09-20T10:53:28.032Z,1.15
2022-09-20T10:55:42.120Z,1.30
2022-09-20T10:57:56.090Z,0.98
2022-09-20T11:00:18.311Z,1.27
2022-09-20T11:02:40.781Z,1.17
2022-09-20T11:05:11.174Z,1.33
2022-09-20T11:07:36.799Z,1.02
2022-09-20T11:09:44.684Z,0.90
2022-09-20T11:11:55.496Z,0.82
2022-09-20T11:14:03.409Z,1.00
2022-09-20T11:16:33.178Z,1.00
2022-09-20T11:18:41.339Z,1.00
2022-09-20T11:20:55.643Z,1.10
2022-09-20T11:23:00.405Z,1.10
2022-09-20T11:25:19.428Z,0.90
2022-09-20T11:27:29.626Z,1.05
2022-09-20T11:29:44.417Z,1.30
2022-09-20T11:31:50.638Z,1.10
2022-09-20T11:33:58.097Z,0.85
2022-09-20T11:36:04.348Z,1.02
2022-09-20T11:38:17.630Z,0.90
2022-09-20T11:40:25.242Z,1.05
2022-09-20T11:42:35.880Z,1.02
2022-09-20T11:44:41.162Z,1.20
2022-09-20T11:46:48.743Z,1.02
2022-09-20T11:49:01.287Z,0.95
2022-09-20T11:51:21.949Z,0.90
2022-09-20T11:53:43.304Z,1.02
2022-09-20T11:56:08.262Z,0.98
2022-09-20T11:58:16.825Z,0.80
2022-09-20T12:00:30.889Z,0.93
2022-09-20T12:02:49.680Z,0.90
2022-09-20T12:04:54.456Z,0.73
2022-09-20T12:07:10.473Z,1.10
2022-09-20T12:09:34.956Z,0.80
2022-09-20T12:11:39.155Z,0.80
2022-09-20T12:13:51.797Z,1.00
2022-09-20T12:15:59.926Z,0.98
2022-09-20T12:18:09.397Z,0.80
2022-09-20T12:20:33.131Z,1.05
2022-09-20T12:22:34.824Z,1.00
2022-09-20T12:24:45.290Z,1.00
2022-09-20T12:26:49.502Z,1.10
2022-09-20T12:28:56.421Z,0.90
2022-09-20T12:31:26.456Z,0.88
2022-09-20T12:34:09.316Z,0.85
2022-09-20T12:36:17.883Z,0.90
2022-09-20T12:38:30.443Z,0.85
2022-09-20T12:40:32.567Z,0.90
2022-09-20T12:42:35.195Z,0.70
2022-09-20T12:44:40.972Z,0.95
2022-09-20T12:46:52.736Z,0.82
2022-09-20T12:49:41.919Z,0.70
2022-09-20T12:52:10.403Z,0.70
2022-09-20T12:54:13.980Z,0.82
2022-09-20T12:56:28.275Z,0.90
2022-09-20T12:58:48.343Z,0.88
2022-09-20T13:00:56.042Z,0.73
2022-09-20T13:02:59.943Z,0.98
2022-09-20T13:05:01.765Z,0.70
2022-09-20T13:07:43.554Z,0.70
2022-09-20T13:09:48.404Z,0.68
2022-09-20T13:11:54.188Z,0.65
2022-09-20T13:14:09.326Z,0.50
2022-09-20T13:16:22.739Z,0.75
2022-09-20T13:18:26.344Z,0.50
2022-09-20T13:20:31.533Z,0.50
2022-09-20T13:22:43.475Z,0.50
2022-09-20T13:24:47.838Z,0.70
2022-09-20T13:26:51.975Z,0.70
2022-09-20T13:28:59.310Z,0.65
2022-09-20T13:31:23.290Z,0.63
2022-09-20T13:33:25.541Z,0.60
2022-09-20T13:35:32.464Z,0.50
2022-09-20T13:37:35.694Z,0.65
2022-09-20T13:39:37.656Z,0.50
2022-09-20T13:41:39.440Z,0.40
2022-09-20T13:43:46.645Z,0.50
2022-09-20T13:45:53.881Z,0.55
2022-09-20T13:47:58.649Z,0.50
2022-09-20T13:50:17.744Z,0.60
2022-09-20T13:52:25.011Z,0.50
2022-09-20T13:54:31.780Z,0.60
2022-09-20T13:56:33.888Z,0.80
2022-09-20T13:58:37.252Z,0.70
2022-09-20T14:00:47.826Z,0.70
2022-09-20T14:02:50.305Z,0.68
2022-09-20T14:04:55.314Z,0.50
2022-09-20T14:07:01.591Z,0.50
2022-09-20T14:09:10.668Z,0.40
2022-09-20T14:11:21.397Z,0.60
2022-09-20T14:13:23.068Z,0.55
2022-09-20T14:15:27.032Z,0.50
2022-09-20T14:17:36.490Z,0.60
2022-09-20T14:19:41.326Z,0.50
2022-09-20T14:21:44.373Z,0.65
2022-09-20T14:23:54.726Z,0.60
2022-09-20T14:26:06.587Z,0.50
2022-09-20T14:28:19.932Z,0.63
2022-09-20T14:30:35.266Z,0.60
2022-09-20T14:32:44.881Z,0.50
2022-09-20T14:35:01.720Z,0.50
2022-09-20T14:37:09.842Z,0.60
2022-09-20T14:39:16.350Z,0.57
2022-09-20T14:41:28.995Z,0.50
2022-09-20T14:43:36.129Z,0.68
2022-09-20T14:45:43.269Z,0.68
2022-09-20T14:48:11.838Z,0.55
2022-09-20T14:50:31.507Z,0.80
2022-09-20T14:52:38.587Z,0.80
2022-09-20T14:54:41.210Z,1.00
2022-09-20T14:56:54.856Z,0.70
2022-09-20T14:59:27.086Z,0.77
2022-09-20T15:01:28.892Z,0.90
2022-09-20T15:03:34.023Z,0.80
2022-09-20T15:05:50.032Z,0.90
2022-09-20T15:07:56.801Z,1.17
2022-09-20T15:09:58.644Z,1.50
2022-09-20T15:12:06.096Z,1.30
2022-09-20T15:14:11.508Z,1.20
2022-09-20T15:16:17.355Z,1.20
2022-09-20T15:18:26.771Z,0.80
2022-09-20T15:20:28.725Z,1.00
2022-09-20T15:22:32.140Z,1.02
2022-09-20T15:24:33.734Z,1.10
2022-09-20T15:26:35.631Z,1.20
2022-09-20T15:28:37.246Z,1.30
2022-09-20T15:30:40.539Z,1.20
2022-09-20T15:32:46.051Z,0.90
2022-09-20T15:34:47.708Z,1.02
2022-09-20T15:36:50.706Z,0.80
2022-09-20T15:38:54.131Z,1.40
2022-09-20T15:40:55.969Z,1.30
2022-09-20T15:43:00.064Z,1.20
2022-09-20T15:45:01.670Z,0.90
2022-09-20T15:47:04.550Z,1.02
2022-09-20T15:49:06.767Z,0.82
2022-09-20T15:51:11.347Z,0.80
2022-09-20T15:53:12.963Z,0.60
2022-09-20T15:55:14.688Z,0.70
2022-09-20T15:57:16.187Z,0.50
2022-09-20T15:59:23.309Z,0.65
2022-09-20T16:01:32.930Z,0.50
2022-09-20T16:03:36.002Z,0.60
2022-09-20T16:05:37.914Z,0.70
2022-09-20T16:07:39.745Z,0.70
2022-09-20T16:09:41.223Z,0.57
2022-09-20T16:11:42.880Z,0.52
2022-09-20T16:13:44.551Z,0.70
2022-09-20T16:15:53.943Z,0.70
2022-09-20T16:18:13.841Z,0.68
2022-09-20T16:20:15.547Z,0.60
2022-09-20T16:22:19.375Z,1.00
2022-09-20T16:24:30.037Z,1.10
2022-09-20T16:26:34.602Z,1.23
2022-09-20T16:28:38.496Z,1.30
2022-09-20T16:30:40.234Z,1.08
2022-09-20T16:32:42.948Z,0.95
2022-09-20T16:34:45.518Z,0.77
2022-09-20T16:36:49.105Z,0.88
2022-09-20T16:38:52.054Z,0.65
2022-09-20T16:40:55.678Z,0.50
2022-09-20T16:42:58.795Z,0.50
2022-09-20T16:45:00.559Z,0.52
2022-09-20T16:47:03.943Z,0.50
2022-09-20T16:49:09.581Z,0.70
2022-09-20T16:51:11.920Z,0.68
2022-09-20T16:53:13.485Z,0.90
2022-09-20T16:55:15.097Z,1.10
2022-09-20T16:57:16.982Z,1.33
2022-09-20T16:59:22.481Z,2.03
2022-09-20T17:01:24.439Z,1.92
2022-09-20T17:03:27.156Z,2.28
2022-09-20T17:05:29.461Z,1.70
2022-09-20T17:07:31.440Z,1.27
2022-09-20T17:09:32.969Z,0.85
2022-09-20T17:11:37.669Z,1.10
2022-09-20T17:13:40.675Z,0.90
2022-09-20T17:15:43.409Z,1.10
2022-09-20T17:17:45.783Z,1.45
2022-09-20T17:19:47.443Z,1.60
2022-09-20T17:21:50.999Z,1.38
2022-09-20T17:23:55.301Z,1.30
2022-09-20T17:26:06.503Z,1.52
2022-09-20T17:28:08.110Z,3.78
2022-09-20T17:30:10.882Z,9.10
2022-09-20T17:32:12.691Z,9.27
2022-09-20T17:34:15.464Z,7.05
2022-09-20T17:36:21.472Z,5.88
2022-09-20T17:38:23.208Z,4.28
2022-09-20T17:40:24.879Z,2.25
2022-09-20T17:42:28.384Z,2.03
2022-09-20T17:44:30.022Z,1.70
2022-09-20T17:46:32.765Z,3.38
2022-09-20T17:48:34.742Z,9.82
2022-09-20T17:50:36.617Z,12.98
2022-09-20T17:52:38.659Z,13.48
2022-09-20T17:54:40.188Z,11.45
2022-09-20T17:56:45.099Z,8.77
2022-09-20T17:58:46.763Z,6.40
2022-09-20T18:00:49.140Z,5.00
2022-09-20T18:02:50.755Z,3.50
2022-09-20T18:04:52.587Z,2.72
2022-09-20T18:06:57.826Z,1.83
2022-09-20T18:09:02.544Z,2.88
2022-09-20T18:11:04.855Z,3.10
2022-09-20T18:13:06.389Z,3.63
2022-09-20T18:15:08.563Z,3.08
2022-09-20T18:17:10.372Z,2.80
2022-09-20T18:19:13.128Z,2.03
2022-09-20T18:21:17.234Z,1.50
2022-09-20T18:23:18.793Z,1.40
2022-09-20T18:25:20.419Z,1.50
2022-09-20T18:27:22.255Z,1.58
2022-09-20T18:29:24.816Z,1.52
2022-09-20T18:31:34.694Z,1.70
2022-09-20T18:33:37.289Z,1.90
2022-09-20T18:35:42.280Z,1.83
2022-09-20T18:37:46.479Z,1.42
2022-09-20T18:39:51.004Z,1.48
2022-09-20T18:41:53.592Z,1.58
2022-09-20T18:43:56.097Z,1.48
2022-09-20T18:46:02.790Z,1.50
2022-09-20T18:48:19.413Z,1.40
2022-09-20T18:50:28.625Z,1.60
2022-09-20T18:52:30.167Z,1.48
2022-09-20T18:54:33.565Z,1.50
2022-09-20T18:56:36.660Z,1.40
2022-09-20T18:58:39.979Z,1.80
2022-09-20T19:00:42.015Z,1.58
2022-09-20T19:03:13.058Z,2.10
2022-09-20T19:05:29.061Z,2.47
2022-09-20T19:07:42.512Z,2.60
2022-09-20T19:10:05.621Z,2.38
2022-09-20T19:12:34.295Z,2.60
2022-09-20T19:14:53.828Z,2.28
2022-09-20T19:17:01.305Z,2.40
2022-09-20T19:19:18.774Z,2.92
2022-09-20T19:21:52.757Z,2.60
2022-09-20T19:24:07.684Z,2.42
2022-09-20T19:26:24.854Z,2.15
2022-09-20T19:28:26.811Z,2.08
2022-09-20T19:30:28.751Z,2.55
2022-09-20T19:32:34.529Z,2.50
2022-09-20T19:34:38.934Z,2.10
2022-09-20T19:36:54.892Z,2.08
2022-09-20T19:39:07.738Z,1.60
2022-09-20T19:41:30.307Z,1.50
2022-09-20T19:43:59.543Z,1.05
2022-09-20T19:46:31.364Z,1.20
2022-09-20T19:48:47.146Z,0.90
2022-09-20T19:50:52.728Z,1.30
2022-09-20T19:52:58.315Z,1.20
2022-09-20T19:55:02.787Z,1.30
2022-09-20T19:57:13.212Z,1.63
2022-09-20T19:59:17.825Z,1.95
2022-09-20T20:01:22.839Z,2.25
2022-09-20T20:03:28.502Z,2.72
2022-09-20T20:05:30.824Z,2.30
2022-09-20T20:07:39.070Z,3.00
2022-09-20T20:10:02.488Z,2.55
2022-09-20T20:13:00.206Z,2.42
2022-09-20T20:15:29.895Z,2.42
2022-09-20T20:17:48.545Z,2.72
2022-09-20T20:20:00.097Z,2.60
2022-09-20T20:22:23.103Z,2.78
2022-09-20T20:24:35.416Z,2.60
2022-09-20T20:26:43.065Z,2.78
2022-09-20T20:28:44.852Z,3.15
2022-09-20T20:30:49.499Z,3.10
2022-09-20T20:32:57.989Z,2.67
2022-09-20T20:35:02.979Z,2.25
2022-09-20T20:37:05.070Z,2.13
2022-09-20T20:39:07.063Z,2.10
2022-09-20T20:41:15.352Z,2.20
2022-09-20T20:43:20.096Z,2.10
2022-09-20T20:45:22.031Z,2.20
2022-09-20T20:47:23.456Z,2.35
2022-09-20T20:49:30.928Z,2.50
2022-09-20T20:51:33.266Z,2.60
2022-09-20T20:53:37.362Z,3.15
2022-09-20T20:55:41.308Z,2.75
2022-09-20T20:57:45.340Z,2.65
2022-09-20T20:59:46.885Z,2.72
2022-09-20T21:01:48.611Z,2.90
2022-09-20T21:03:52.549Z,2.38
2022-09-20T21:05:54.127Z,2.50
2022-09-20T21:07:57.982Z,2.50
2022-09-20T21:09:59.768Z,2.40
2022-09-20T21:12:02.504Z,2.60
2022-09-20T21:14:07.097Z,2.90
2022-09-20T21:16:17.073Z,2.58
2022-09-20T21:18:18.740Z,2.33
2022-09-20T21:20:21.706Z,2.70
2022-09-20T21:22:23.311Z,2.33
2022-09-20T21:24:24.807Z,2.00
2022-09-20T21:26:28.323Z,2.00
2022-09-20T21:28:30.804Z,1.60
2022-09-20T21:30:32.533Z,2.17
2022-09-20T21:32:34.561Z,1.58
2022-09-20T21:34:36.168Z,2.20
2022-09-20T21:36:45.176Z,1.77
2022-09-20T21:38:55.948Z,1.83
2022-09-20T21:41:04.918Z,2.05
2022-09-20T21:43:06.671Z,1.63
2022-09-20T21:45:11.034Z,2.08
2022-09-20T21:47:18.831Z,1.88
2022-09-20T21:49:20.460Z,2.10
2022-09-20T21:51:25.430Z,1.95
2022-09-20T21:53:27.147Z,2.40
2022-09-20T21:55:28.732Z,2.95
2022-09-20T21:57:30.349Z,3.33
2022-09-20T21:59:31.997Z,3.60
2022-09-20T22:01:37.967Z,3.72
2022-09-20T22:03:51.760Z,3.28
2022-09-20T22:05:54.278Z,3.47
2022-09-20T22:07:58.382Z,3.45
2022-09-20T22:09:59.975Z,3.97
2022-09-20T22:12:01.698Z,4.35
2022-09-20T22:14:03.508Z,4.82
2022-09-20T22:16:08.177Z,4.15
2022-09-20T22:18:09.710Z,3.78
2022-09-20T22:20:12.251Z,3.42
2022-09-20T22:22:13.867Z,3.42
2022-09-20T22:24:16.599Z,2.97
2022-09-20T22:26:21.542Z,2.78
2022-09-20T22:28:23.361Z,2.88
2022-09-20T22:30:24.952Z,2.97
2022-09-20T22:32:26.454Z,2.65
2022-09-20T22:34:27.933Z,2.97
2022-09-20T22:36:32.533Z,2.78
2022-09-20T22:38:34.235Z,3.20
2022-09-20T22:40:35.887Z,2.97
2022-09-20T22:42:37.436Z,2.80
2022-09-20T22:44:39.088Z,2.72
2022-09-20T22:46:40.853Z,2.88
2022-09-20T22:48:42.999Z,2.58
2022-09-20T22:50:44.842Z,2.15
2022-09-20T22:52:46.323Z,2.20
2022-09-20T22:54:48.995Z,2.30
2022-09-20T22:56:53.210Z,2.40
2022-09-20T22:59:00.013Z,2.00
2022-09-20T23:01:14.965Z,2.58
2022-09-20T23:03:17.754Z,2.65
2022-09-20T23:05:19.334Z,2.55
2022-09-20T23:07:21.221Z,2.70
2022-09-20T23:09:25.597Z,2.60
2022-09-20T23:11:28.662Z,2.30
2022-09-20T23:13:30.439Z,2.55
2022-09-20T23:15:32.240Z,2.70
2022-09-20T23:17:33.862Z,2.40
2022-09-20T23:19:35.319Z,2.50
2022-09-20T23:21:38.999Z,2.40
2022-09-20T23:23:44.884Z,2.20
2022-09-20T23:25:51.629Z,2.20
2022-09-20T23:27:54.387Z,2.10
2022-09-20T23:29:56.053Z,2.10
2022-09-20T23:31:57.703Z,2.22
2022-09-20T23:34:00.775Z,2.40
2022-09-20T23:36:08.398Z,2.15
2022-09-20T23:38:09.942Z,2.00
2022-09-20T23:40:11.948Z,2.00
2022-09-20T23:42:13.608Z,2.03
2022-09-20T23:44:15.300Z,1.77
2022-09-20T23:46:19.092Z,2.00
2022-09-20T23:48:20.609Z,1.70
2022-09-20T23:50:22.309Z,2.10
2022-09-20T23:52:23.953Z,1.70
2022-09-20T23:54:28.152Z,1.58
2022-09-20T23:56:30.104Z,1.60
2022-09-20T23:58:32.462Z,2.00
